createdAt,value
2017-09-27T11:57:57.879Z,27.47
2017-09-27T12:00:26.235Z,30.87
2017-09-27T12:02:54.596Z,30.33
2017-09-27T12:05:22.999Z,31.30
2017-09-27T12:07:51.330Z,33.50
2017-09-27T12:10:19.687Z,28.73
2017-09-27T12:12:48.056Z,34.47
2017-09-27T12:15:17.166Z,30.53
2017-09-27T12:17:45.546Z,31.93
2017-09-27T12:20:13.897Z,31.10
2017-09-27T12:22:42.259Z,26.90
2017-09-27T12:25:10.597Z,31.43
2017-09-27T12:27:38.969Z,30.97
2017-09-27T12:30:07.308Z,29.07
2017-09-27T12:32:36.469Z,27.20
2017-09-27T12:35:04.840Z,30.73
2017-09-27T12:37:33.998Z,30.73
2017-09-27T12:40:03.108Z,34.13
2017-09-27T12:42:31.683Z,37.17
2017-09-27T12:45:00.131Z,39.43
2017-09-27T12:47:28.655Z,27.37
2017-09-27T12:49:57.135Z,28.47
2017-09-27T12:52:25.570Z,29.53
2017-09-27T12:54:53.992Z,26.63
2017-09-27T12:57:22.531Z,31.30
2017-09-27T12:59:51.030Z,28.83
2017-09-27T13:02:20.272Z,25.50
2017-09-27T13:04:48.864Z,35.57
2017-09-27T13:07:17.365Z,30.00
2017-09-27T13:09:45.797Z,33.17
2017-09-27T13:12:14.333Z,30.50
2017-09-27T13:14:43.636Z,29.07
2017-09-27T13:17:12.919Z,29.73
2017-09-27T13:19:41.413Z,29.50
2017-09-27T13:22:09.906Z,31.13
2017-09-27T13:24:39.125Z,35.87
2017-09-27T13:27:08.328Z,31.43
2017-09-27T13:29:37.650Z,32.63
2017-09-27T13:32:06.088Z,34.00
2017-09-27T13:34:34.588Z,28.33
2017-09-27T13:37:03.855Z,35.83
2017-09-27T13:39:32.369Z,30.60
2017-09-27T13:42:01.990Z,34.80
2017-09-27T13:44:30.493Z,27.77
2017-09-27T13:46:58.980Z,24.97
2017-09-27T13:49:27.493Z,22.23
2017-09-27T13:51:55.961Z,20.10
2017-09-27T13:54:24.498Z,27.90
2017-09-27T13:56:53.719Z,24.23
2017-09-27T13:59:22.202Z,27.53
2017-09-27T14:01:51.465Z,27.77
2017-09-27T14:04:19.952Z,20.40
2017-09-27T14:06:48.402Z,29.67
2017-09-27T14:09:16.880Z,26.93
2017-09-27T14:11:45.378Z,23.20
2017-09-27T14:14:14.637Z,22.40
2017-09-27T14:16:43.116Z,22.10
2017-09-27T14:19:11.800Z,24.13
2017-09-27T14:21:40.882Z,26.53
2017-09-27T14:24:09.225Z,22.30
2017-09-27T14:26:37.553Z,23.10
2017-09-27T14:29:06.674Z,21.40
2017-09-27T14:31:35.018Z,35.33
2017-09-27T14:34:03.346Z,23.00
2017-09-27T14:36:31.693Z,27.23
2017-09-27T14:39:00.025Z,22.23
2017-09-27T14:41:28.364Z,24.50
2017-09-27T14:43:56.689Z,22.77
2017-09-27T14:46:25.047Z,25.10
2017-09-27T14:48:53.361Z,22.23
2017-09-27T14:51:21.718Z,21.03
2017-09-27T14:53:50.042Z,21.43
2017-09-27T14:56:19.145Z,21.67
2017-09-27T14:58:47.614Z,27.40
2017-09-27T15:01:16.716Z,22.57
2017-09-27T15:03:45.798Z,24.10
2017-09-27T15:06:14.140Z,22.90
2017-09-27T15:08:42.466Z,20.37
2017-09-27T15:11:11.577Z,22.50
2017-09-27T15:13:39.903Z,22.10
2017-09-27T15:16:08.249Z,20.43
2017-09-27T15:18:36.579Z,23.30
2017-09-27T15:21:04.925Z,21.23
2017-09-27T15:23:33.246Z,22.87
2017-09-27T15:26:01.589Z,19.07
2017-09-27T15:28:29.914Z,22.80
2017-09-27T15:30:59.096Z,33.13
2017-09-27T15:33:27.418Z,25.53
2017-09-27T15:35:55.752Z,26.53
2017-09-27T15:38:24.093Z,23.73
2017-09-27T15:40:52.412Z,20.47
2017-09-27T15:43:20.760Z,33.07
2017-09-27T15:45:49.089Z,22.80
2017-09-27T15:48:18.196Z,20.73
2017-09-27T15:50:46.517Z,24.33
2017-09-27T15:53:14.858Z,23.60
2017-09-27T15:55:43.176Z,20.10
2017-09-27T15:58:11.526Z,19.30
2017-09-27T16:00:39.889Z,26.00
2017-09-27T16:03:08.241Z,19.87
2017-09-27T16:05:36.567Z,26.63
2017-09-27T16:08:04.918Z,18.57
2017-09-27T16:10:33.253Z,21.40
2017-09-27T16:13:01.588Z,19.20
2017-09-27T16:15:29.918Z,25.97
2017-09-27T16:17:58.274Z,22.57
2017-09-27T16:20:26.593Z,25.43
2017-09-27T16:22:54.934Z,19.87
2017-09-27T16:25:23.249Z,21.70
2017-09-27T16:27:51.601Z,21.07
2017-09-27T16:30:19.918Z,25.53
2017-09-27T16:32:49.046Z,23.60
2017-09-27T16:35:17.395Z,19.70
2017-09-27T16:37:46.472Z,20.70
2017-09-27T16:40:14.818Z,25.33
2017-09-27T16:42:43.143Z,18.43
2017-09-27T16:45:11.514Z,29.87
2017-09-27T16:47:40.617Z,16.47
2017-09-27T16:50:09.732Z,27.43
2017-09-27T16:52:38.067Z,28.63
2017-09-27T16:55:06.418Z,19.63
2017-09-27T16:57:34.738Z,18.77
2017-09-27T17:00:03.093Z,18.90
2017-09-27T17:02:31.430Z,33.90
2017-09-27T17:04:59.766Z,18.80
2017-09-27T17:07:28.117Z,22.60
2017-09-27T17:09:56.458Z,15.23
2017-09-27T17:12:25.547Z,18.40
2017-09-27T17:14:54.665Z,15.50
2017-09-27T17:17:23.023Z,21.27
2017-09-27T17:19:52.130Z,20.77
2017-09-27T17:22:20.462Z,18.90
2017-09-27T17:24:48.822Z,19.57
2017-09-27T17:27:17.132Z,20.87
2017-09-27T17:29:45.487Z,15.80
2017-09-27T17:32:13.809Z,19.17
2017-09-27T17:34:42.931Z,15.40
2017-09-27T17:37:11.258Z,25.97
2017-09-27T17:39:39.616Z,18.47
2017-09-27T17:42:07.943Z,18.60
2017-09-27T17:44:37.034Z,16.10
2017-09-27T17:47:05.375Z,20.53
2017-09-27T17:49:37.088Z,20.83
2017-09-27T17:52:06.214Z,19.70
2017-09-27T17:54:34.540Z,27.40
2017-09-27T17:57:02.887Z,22.10
2017-09-27T17:59:31.202Z,19.20
2017-09-27T18:02:00.308Z,18.23
2017-09-27T18:04:35.170Z,17.90
2017-09-27T18:07:09.205Z,25.17
2017-09-27T18:09:43.267Z,20.67
2017-09-27T18:12:15.032Z,17.97
2017-09-27T18:14:49.706Z,22.40
2017-09-27T18:17:27.981Z,25.80
2017-09-27T18:19:56.308Z,19.53
2017-09-27T18:22:24.648Z,23.97
2017-09-27T18:24:52.978Z,22.80
2017-09-27T18:27:21.323Z,21.20
2017-09-27T18:29:49.651Z,21.17
2017-09-27T18:32:18.790Z,20.73
2017-09-27T18:34:47.118Z,22.67
2017-09-27T18:37:15.469Z,31.50
2017-09-27T18:39:43.793Z,23.63
2017-09-27T18:42:12.929Z,20.60
2017-09-27T18:44:42.014Z,33.57
2017-09-27T18:47:10.361Z,21.33
2017-09-27T18:49:39.456Z,35.00
2017-09-27T18:52:07.813Z,26.23
2017-09-27T18:54:36.149Z,40.17
2017-09-27T18:57:04.522Z,50.70
2017-09-27T18:59:32.855Z,47.83
2017-09-27T19:02:01.190Z,55.57
2017-09-27T19:04:29.561Z,47.83
2017-09-27T19:06:58.676Z,42.57
2017-09-27T19:09:27.855Z,49.93
2017-09-27T19:11:56.205Z,42.93
2017-09-27T19:14:24.568Z,40.93
2017-09-27T19:16:52.905Z,41.33
2017-09-27T19:19:22.204Z,33.17
2017-09-27T19:21:50.550Z,32.57
2017-09-27T19:24:18.910Z,36.60
2017-09-27T19:26:47.248Z,34.13
2017-09-27T19:29:15.602Z,32.10
2017-09-27T19:31:43.972Z,38.10
2017-09-27T19:34:13.090Z,39.77
2017-09-27T19:36:41.423Z,32.60
2017-09-27T19:39:09.782Z,28.47
2017-09-27T19:41:38.109Z,29.13
2017-09-27T19:44:06.478Z,28.30
2017-09-27T19:46:35.585Z,30.33
2017-09-27T19:49:03.957Z,25.90
2017-09-27T19:51:33.054Z,26.17
2017-09-27T19:54:02.138Z,22.00
2017-09-27T19:56:30.482Z,22.80
2017-09-27T19:58:58.808Z,23.90
2017-09-27T20:01:27.931Z,21.80
2017-09-27T20:03:56.266Z,26.37
2017-09-27T20:06:25.400Z,34.20
2017-09-27T20:08:53.725Z,28.60
2017-09-27T20:11:22.069Z,28.60
2017-09-27T20:13:50.406Z,29.53
2017-09-27T20:16:19.604Z,29.30
2017-09-27T20:18:48.681Z,25.80
2017-09-27T20:21:17.024Z,24.40
2017-09-27T20:23:45.340Z,29.70
2017-09-27T20:26:13.679Z,29.03
2017-09-27T20:28:42.009Z,29.37
2017-09-27T20:31:10.354Z,31.80
2017-09-27T20:33:38.685Z,25.23
2017-09-27T20:36:07.794Z,32.03
2017-09-27T20:38:36.125Z,24.80
2017-09-27T20:41:04.480Z,25.60
2017-09-27T20:43:32.805Z,28.90
2017-09-27T20:46:01.149Z,25.50
2017-09-27T20:48:29.470Z,24.57
2017-09-27T20:50:58.573Z,22.47
2017-09-27T20:53:26.889Z,23.00
2017-09-27T20:55:56.002Z,28.43
2017-09-27T20:58:24.334Z,22.90
2017-09-27T21:00:52.653Z,26.63
2017-09-27T21:03:27.602Z,20.83
2017-09-27T21:05:55.927Z,19.23
2017-09-27T21:11:09.246Z,24.07
2017-09-27T21:13:38.514Z,23.43
2017-09-27T21:16:07.793Z,26.07
2017-09-27T21:18:36.139Z,26.40
2017-09-27T21:21:05.860Z,21.87
2017-09-27T21:23:37.426Z,21.90
2017-09-27T21:26:07.655Z,25.03
2017-09-27T21:28:38.233Z,21.37
2017-09-27T21:31:08.056Z,24.03
2017-09-27T21:33:43.142Z,25.37
2017-09-27T21:36:15.249Z,25.03
2017-09-27T21:38:52.897Z,24.70
2017-09-27T21:41:21.230Z,23.83
2017-09-27T21:43:53.191Z,19.53
2017-09-27T21:46:35.025Z,21.17
2017-09-27T21:49:03.373Z,30.53
2017-09-27T21:51:31.691Z,22.70
2017-09-27T21:54:00.028Z,23.63
2017-09-27T21:56:28.346Z,23.23
2017-09-27T21:58:56.708Z,22.37
2017-09-27T22:01:25.818Z,25.97
2017-09-27T22:03:54.215Z,22.53
2017-09-27T22:06:22.533Z,22.47
2017-09-27T22:08:50.882Z,28.40
2017-09-27T22:11:19.194Z,23.53
2017-09-27T22:13:47.538Z,29.60
2017-09-27T22:16:15.859Z,35.97
2017-09-27T22:18:44.192Z,56.23
2017-09-27T22:21:12.532Z,49.43
2017-09-27T22:23:40.888Z,47.03
2017-09-27T22:26:09.201Z,43.50
2017-09-27T22:28:37.574Z,38.30
2017-09-27T22:31:05.893Z,50.70
2017-09-27T22:33:34.219Z,47.23
2017-09-27T22:36:02.546Z,44.53
2017-09-27T22:38:30.870Z,63.47
2017-09-27T22:40:59.209Z,46.43
2017-09-27T22:43:27.517Z,39.90
2017-09-27T22:45:55.848Z,27.03
2017-09-27T22:48:24.173Z,49.90
2017-09-27T22:50:52.516Z,41.73
2017-09-27T22:53:20.831Z,44.23
2017-09-27T22:55:49.175Z,34.27
2017-09-27T22:58:17.509Z,46.30
2017-09-27T23:00:46.617Z,37.33
2017-09-27T23:03:15.708Z,37.60
2017-09-27T23:05:44.814Z,85.27
2017-09-27T23:08:13.142Z,55.23
2017-09-27T23:10:41.492Z,52.30
2017-09-27T23:13:10.578Z,50.50
2017-09-27T23:15:38.916Z,68.17
2017-09-27T23:18:07.239Z,45.47
2017-09-27T23:20:35.585Z,32.00
2017-09-27T23:23:04.684Z,47.83
2017-09-27T23:25:33.785Z,50.23
2017-09-27T23:28:02.876Z,41.57
2017-09-27T23:30:31.982Z,40.43
2017-09-27T23:33:01.057Z,43.83
2017-09-27T23:35:29.394Z,45.90
2017-09-27T23:37:57.717Z,56.83
2017-09-27T23:40:26.056Z,63.90
2017-09-27T23:42:54.392Z,48.43
2017-09-27T23:45:23.489Z,49.70
2017-09-27T23:47:52.572Z,66.07
2017-09-27T23:50:20.916Z,86.97
2017-09-27T23:52:49.229Z,61.00
2017-09-27T23:55:18.333Z,65.73
2017-09-27T23:57:47.425Z,101.00
